sensor_id;sensor_type;location;lat;lon;timestamp;P1;durP1;ratioP1;P2;durP2;ratioP2
59788;SDS011;47353;51.614;5.530;2023-06-24T00:00:07;20.33;;;16.23;;
59788;SDS011;47353;51.614;5.530;2023-06-24T00:02:34;22.58;;;16.67;;
59788;SDS011;47353;51.614;5.530;2023-06-24T00:05:02;18.92;;;15.95;;
59788;SDS011;47353;51.614;5.530;2023-06-24T00:07:28;18.38;;;15.90;;
59788;SDS011;47353;51.614;5.530;2023-06-24T00:09:54;23.25;;;17.65;;
59788;SDS011;47353;51.614;5.530;2023-06-24T00:12:19;21.67;;;18.58;;
59788;SDS011;47353;51.614;5.530;2023-06-24T00:14:48;24.45;;;18.70;;
59788;SDS011;47353;51.614;5.530;2023-06-24T00:17:15;25.42;;;21.10;;
59788;SDS011;47353;51.614;5.530;2023-06-24T00:19:41;25.63;;;21.15;;
59788;SDS011;47353;51.614;5.530;2023-06-24T00:22:07;28.25;;;22.40;;
59788;SDS011;47353;51.614;5.530;2023-06-24T00:24:32;29.48;;;22.27;;
59788;SDS011;47353;51.614;5.530;2023-06-24T00:26:57;28.55;;;21.25;;
59788;SDS011;47353;51.614;5.530;2023-06-24T00:29:23;26.38;;;21.17;;
59788;SDS011;47353;51.614;5.530;2023-06-24T00:31:48;29.02;;;21.73;;
59788;SDS011;47353;51.614;5.530;2023-06-24T00:34:14;28.73;;;21.20;;
59788;SDS011;47353;51.614;5.530;2023-06-24T00:36:39;29.05;;;21.00;;
59788;SDS011;47353;51.614;5.530;2023-06-24T00:39:05;27.50;;;22.20;;
59788;SDS011;47353;51.614;5.530;2023-06-24T00:41:31;29.63;;;20.27;;
59788;SDS011;47353;51.614;5.530;2023-06-24T00:43:58;28.33;;;20.42;;
59788;SDS011;47353;51.614;5.530;2023-06-24T00:46:24;30.88;;;21.38;;
59788;SDS011;47353;51.614;5.530;2023-06-24T00:48:59;24.77;;;19.50;;
59788;SDS011;47353;51.614;5.530;2023-06-24T00:51:28;26.27;;;18.88;;
59788;SDS011;47353;51.614;5.530;2023-06-24T00:53:57;22.55;;;18.10;;
59788;SDS011;47353;51.614;5.530;2023-06-24T00:56:25;21.92;;;17.95;;
59788;SDS011;47353;51.614;5.530;2023-06-24T00:58:54;21.85;;;17.52;;
59788;SDS011;47353;51.614;5.530;2023-06-24T01:01:22;23.27;;;17.55;;
59788;SDS011;47353;51.614;5.530;2023-06-24T01:03:49;18.83;;;15.98;;
59788;SDS011;47353;51.614;5.530;2023-06-24T01:06:14;18.45;;;15.00;;
59788;SDS011;47353;51.614;5.530;2023-06-24T01:08:40;17.20;;;14.23;;
59788;SDS011;47353;51.614;5.530;2023-06-24T01:11:05;16.23;;;13.48;;
59788;SDS011;47353;51.614;5.530;2023-06-24T01:13:31;18.42;;;13.60;;
59788;SDS011;47353;51.614;5.530;2023-06-24T01:15:57;18.33;;;13.63;;
59788;SDS011;47353;51.614;5.530;2023-06-24T01:21:22;15.88;;;13.20;;
59788;SDS011;47353;51.614;5.530;2023-06-24T01:26:59;14.73;;;12.57;;
59788;SDS011;47353;51.614;5.530;2023-06-24T01:35:00;15.93;;;12.77;;
59788;SDS011;47353;51.614;5.530;2023-06-24T01:37:41;14.25;;;12.75;;
59788;SDS011;47353;51.614;5.530;2023-06-24T01:42:54;15.32;;;12.23;;
59788;SDS011;47353;51.614;5.530;2023-06-24T01:45:23;15.93;;;11.45;;
59788;SDS011;47353;51.614;5.530;2023-06-24T01:47:54;14.25;;;11.88;;
59788;SDS011;47353;51.614;5.530;2023-06-24T01:50:31;16.52;;;11.80;;
59788;SDS011;47353;51.614;5.530;2023-06-24T01:52:58;14.15;;;11.65;;
59788;SDS011;47353;51.614;5.530;2023-06-24T01:55:26;13.75;;;11.93;;
59788;SDS011;47353;51.614;5.530;2023-06-24T01:57:54;14.82;;;11.55;;
59788;SDS011;47353;51.614;5.530;2023-06-24T02:00:22;14.48;;;11.05;;
59788;SDS011;47353;51.614;5.530;2023-06-24T02:02:49;15.02;;;11.60;;
59788;SDS011;47353;51.614;5.530;2023-06-24T02:05:17;16.58;;;11.98;;
59788;SDS011;47353;51.614;5.530;2023-06-24T02:07:43;12.65;;;11.02;;
59788;SDS011;47353;51.614;5.530;2023-06-24T02:10:13;13.05;;;10.60;;
59788;SDS011;47353;51.614;5.530;2023-06-24T02:12:39;12.80;;;10.27;;
59788;SDS011;47353;51.614;5.530;2023-06-24T02:15:06;13.98;;;10.02;;
59788;SDS011;47353;51.614;5.530;2023-06-24T02:17:34;11.75;;;10.10;;
59788;SDS011;47353;51.614;5.530;2023-06-24T02:20:00;11.68;;;9.45;;
59788;SDS011;47353;51.614;5.530;2023-06-24T02:22:28;12.38;;;10.35;;
59788;SDS011;47353;51.614;5.530;2023-06-24T02:24:54;11.35;;;9.68;;
59788;SDS011;47353;51.614;5.530;2023-06-24T02:27:20;12.32;;;9.88;;
59788;SDS011;47353;51.614;5.530;2023-06-24T02:29:46;10.80;;;9.38;;
59788;SDS011;47353;51.614;5.530;2023-06-24T02:32:13;12.35;;;8.65;;
59788;SDS011;47353;51.614;5.530;2023-06-24T02:34:38;10.10;;;8.93;;
59788;SDS011;47353;51.614;5.530;2023-06-24T02:37:05;12.15;;;9.40;;
59788;SDS011;47353;51.614;5.530;2023-06-24T02:39:30;11.00;;;8.52;;
59788;SDS011;47353;51.614;5.530;2023-06-24T02:41:56;12.43;;;8.20;;
59788;SDS011;47353;51.614;5.530;2023-06-24T02:44:21;8.57;;;7.35;;
59788;SDS011;47353;51.614;5.530;2023-06-24T02:46:46;9.20;;;7.30;;
59788;SDS011;47353;51.614;5.530;2023-06-24T02:49:14;9.40;;;7.20;;
59788;SDS011;47353;51.614;5.530;2023-06-24T02:51:42;8.07;;;6.50;;
59788;SDS011;47353;51.614;5.530;2023-06-24T02:54:09;9.10;;;6.25;;
59788;SDS011;47353;51.614;5.530;2023-06-24T02:56:36;9.85;;;5.90;;
59788;SDS011;47353;51.614;5.530;2023-06-24T02:59:08;8.02;;;5.97;;
59788;SDS011;47353;51.614;5.530;2023-06-24T03:01:34;13.25;;;7.60;;
59788;SDS011;47353;51.614;5.530;2023-06-24T03:04:04;15.05;;;9.02;;
59788;SDS011;47353;51.614;5.530;2023-06-24T03:06:30;20.85;;;10.43;;
59788;SDS011;47353;51.614;5.530;2023-06-24T03:08:56;21.85;;;10.73;;
59788;SDS011;47353;51.614;5.530;2023-06-24T03:11:22;16.70;;;9.25;;
59788;SDS011;47353;51.614;5.530;2023-06-24T03:13:48;16.45;;;9.07;;
59788;SDS011;47353;51.614;5.530;2023-06-24T03:16:13;12.95;;;8.18;;
59788;SDS011;47353;51.614;5.530;2023-06-24T03:18:40;11.10;;;7.70;;
59788;SDS011;47353;51.614;5.530;2023-06-24T03:21:06;12.10;;;7.55;;
59788;SDS011;47353;51.614;5.530;2023-06-24T03:23:32;10.93;;;7.57;;
59788;SDS011;47353;51.614;5.530;2023-06-24T03:25:58;10.02;;;7.90;;
59788;SDS011;47353;51.614;5.530;2023-06-24T03:28:23;10.45;;;8.32;;
59788;SDS011;47353;51.614;5.530;2023-06-24T03:30:48;9.02;;;7.97;;
59788;SDS011;47353;51.614;5.530;2023-06-24T03:33:14;9.52;;;7.82;;
59788;SDS011;47353;51.614;5.530;2023-06-24T03:35:42;10.10;;;7.53;;
59788;SDS011;47353;51.614;5.530;2023-06-24T03:38:08;9.73;;;7.45;;
59788;SDS011;47353;51.614;5.530;2023-06-24T03:40:33;10.30;;;7.70;;
59788;SDS011;47353;51.614;5.530;2023-06-24T03:42:59;11.18;;;7.72;;
59788;SDS011;47353;51.614;5.530;2023-06-24T03:45:24;9.75;;;8.02;;
59788;SDS011;47353;51.614;5.530;2023-06-24T03:47:49;12.20;;;8.07;;
59788;SDS011;47353;51.614;5.530;2023-06-24T03:50:15;9.35;;;8.38;;
59788;SDS011;47353;51.614;5.530;2023-06-24T03:52:40;11.20;;;7.82;;
59788;SDS011;47353;51.614;5.530;2023-06-24T03:55:06;9.77;;;8.02;;
59788;SDS011;47353;51.614;5.530;2023-06-24T03:57:31;10.48;;;8.70;;
59788;SDS011;47353;51.614;5.530;2023-06-24T03:59:57;10.88;;;8.30;;
59788;SDS011;47353;51.614;5.530;2023-06-24T04:02:22;10.85;;;8.02;;
59788;SDS011;47353;51.614;5.530;2023-06-24T04:04:48;10.15;;;8.05;;
59788;SDS011;47353;51.614;5.530;2023-06-24T04:07:16;9.95;;;8.30;;
59788;SDS011;47353;51.614;5.530;2023-06-24T04:09:56;11.63;;;8.98;;
59788;SDS011;47353;51.614;5.530;2023-06-24T04:12:21;13.70;;;8.82;;
59788;SDS011;47353;51.614;5.530;2023-06-24T04:14:47;11.90;;;8.77;;
59788;SDS011;47353;51.614;5.530;2023-06-24T04:17:13;9.43;;;8.15;;
59788;SDS011;47353;51.614;5.530;2023-06-24T04:19:38;9.73;;;8.40;;
59788;SDS011;47353;51.614;5.530;2023-06-24T04:22:04;10.93;;;8.88;;
59788;SDS011;47353;51.614;5.530;2023-06-24T04:24:30;12.93;;;10.05;;
59788;SDS011;47353;51.614;5.530;2023-06-24T04:26:55;13.27;;;9.00;;
59788;SDS011;47353;51.614;5.530;2023-06-24T04:29:20;12.38;;;9.35;;
59788;SDS011;47353;51.614;5.530;2023-06-24T04:31:46;12.55;;;9.38;;
59788;SDS011;47353;51.614;5.530;2023-06-24T04:34:11;15.02;;;10.57;;
59788;SDS011;47353;51.614;5.530;2023-06-24T04:36:37;14.30;;;10.13;;
59788;SDS011;47353;51.614;5.530;2023-06-24T04:39:03;14.82;;;10.45;;
59788;SDS011;47353;51.614;5.530;2023-06-24T04:41:29;14.27;;;10.57;;
59788;SDS011;47353;51.614;5.530;2023-06-24T04:43:55;11.43;;;9.68;;
59788;SDS011;47353;51.614;5.530;2023-06-24T04:46:20;13.02;;;10.60;;
59788;SDS011;47353;51.614;5.530;2023-06-24T04:48:46;13.40;;;11.40;;
59788;SDS011;47353;51.614;5.530;2023-06-24T04:51:12;18.25;;;11.57;;
59788;SDS011;47353;51.614;5.530;2023-06-24T04:53:37;16.77;;;11.13;;
59788;SDS011;47353;51.614;5.530;2023-06-24T04:56:03;20.02;;;12.10;;
59788;SDS011;47353;51.614;5.530;2023-06-24T04:58:28;14.15;;;11.60;;
59788;SDS011;47353;51.614;5.530;2023-06-24T05:00:53;15.50;;;11.30;;
59788;SDS011;47353;51.614;5.530;2023-06-24T05:03:19;15.63;;;11.93;;
59788;SDS011;47353;51.614;5.530;2023-06-24T05:05:44;19.50;;;12.90;;
59788;SDS011;47353;51.614;5.530;2023-06-24T05:08:10;15.85;;;13.00;;
59788;SDS011;47353;51.614;5.530;2023-06-24T05:10:35;18.00;;;12.38;;
59788;SDS011;47353;51.614;5.530;2023-06-24T05:13:00;17.08;;;12.93;;
59788;SDS011;47353;51.614;5.530;2023-06-24T05:15:26;18.52;;;13.02;;
59788;SDS011;47353;51.614;5.530;2023-06-24T05:17:51;17.45;;;13.43;;
59788;SDS011;47353;51.614;5.530;2023-06-24T05:20:17;20.58;;;13.57;;
59788;SDS011;47353;51.614;5.530;2023-06-24T05:22:43;18.90;;;14.88;;
59788;SDS011;47353;51.614;5.530;2023-06-24T05:25:09;21.63;;;14.88;;
59788;SDS011;47353;51.614;5.530;2023-06-24T05:27:34;21.25;;;15.32;;
59788;SDS011;47353;51.614;5.530;2023-06-24T05:29:59;24.23;;;16.05;;
59788;SDS011;47353;51.614;5.530;2023-06-24T05:32:25;20.00;;;16.05;;
59788;SDS011;47353;51.614;5.530;2023-06-24T05:34:50;22.13;;;15.65;;
59788;SDS011;47353;51.614;5.530;2023-06-24T05:37:16;21.45;;;15.63;;
59788;SDS011;47353;51.614;5.530;2023-06-24T05:39:41;20.88;;;15.38;;
59788;SDS011;47353;51.614;5.530;2023-06-24T05:42:06;23.67;;;15.82;;
59788;SDS011;47353;51.614;5.530;2023-06-24T05:44:32;23.50;;;16.48;;
59788;SDS011;47353;51.614;5.530;2023-06-24T05:46:58;23.20;;;16.15;;
59788;SDS011;47353;51.614;5.530;2023-06-24T05:49:24;20.58;;;15.88;;
59788;SDS011;47353;51.614;5.530;2023-06-24T05:51:49;18.08;;;14.55;;
59788;SDS011;47353;51.614;5.530;2023-06-24T05:54:15;19.42;;;14.73;;
59788;SDS011;47353;51.614;5.530;2023-06-24T05:56:40;18.63;;;14.27;;
59788;SDS011;47353;51.614;5.530;2023-06-24T05:59:05;20.42;;;14.20;;
59788;SDS011;47353;51.614;5.530;2023-06-24T06:01:31;19.17;;;14.02;;
59788;SDS011;47353;51.614;5.530;2023-06-24T06:03:57;18.75;;;13.98;;
59788;SDS011;47353;51.614;5.530;2023-06-24T06:06:22;18.67;;;13.48;;
59788;SDS011;47353;51.614;5.530;2023-06-24T06:08:47;16.77;;;13.15;;
59788;SDS011;47353;51.614;5.530;2023-06-24T06:11:13;17.55;;;12.70;;
59788;SDS011;47353;51.614;5.530;2023-06-24T06:13:38;16.20;;;12.15;;
59788;SDS011;47353;51.614;5.530;2023-06-24T06:16:04;15.40;;;12.70;;
59788;SDS011;47353;51.614;5.530;2023-06-24T06:18:29;14.57;;;11.77;;
59788;SDS011;47353;51.614;5.530;2023-06-24T06:20:54;16.30;;;11.45;;
59788;SDS011;47353;51.614;5.530;2023-06-24T06:23:20;16.13;;;11.07;;
59788;SDS011;47353;51.614;5.530;2023-06-24T06:25:46;16.33;;;11.18;;
59788;SDS011;47353;51.614;5.530;2023-06-24T06:28:11;14.48;;;11.20;;
59788;SDS011;47353;51.614;5.530;2023-06-24T06:30:36;17.88;;;11.57;;
59788;SDS011;47353;51.614;5.530;2023-06-24T06:33:02;13.40;;;10.32;;
59788;SDS011;47353;51.614;5.530;2023-06-24T06:35:27;16.63;;;11.23;;
59788;SDS011;47353;51.614;5.530;2023-06-24T06:37:53;17.35;;;11.43;;
59788;SDS011;47353;51.614;5.530;2023-06-24T06:40:22;15.25;;;11.00;;
59788;SDS011;47353;51.614;5.530;2023-06-24T06:42:48;13.45;;;10.95;;
59788;SDS011;47353;51.614;5.530;2023-06-24T06:45:13;15.55;;;10.38;;
59788;SDS011;47353;51.614;5.530;2023-06-24T06:47:39;14.02;;;10.90;;
59788;SDS011;47353;51.614;5.530;2023-06-24T06:50:04;15.60;;;11.60;;
59788;SDS011;47353;51.614;5.530;2023-06-24T06:52:30;13.00;;;10.63;;
59788;SDS011;47353;51.614;5.530;2023-06-24T06:54:56;14.40;;;10.93;;
59788;SDS011;47353;51.614;5.530;2023-06-24T06:57:22;17.50;;;12.35;;
59788;SDS011;47353;51.614;5.530;2023-06-24T06:59:47;15.07;;;10.55;;
59788;SDS011;47353;51.614;5.530;2023-06-24T07:02:14;14.05;;;11.20;;
59788;SDS011;47353;51.614;5.530;2023-06-24T07:04:40;15.82;;;10.80;;
59788;SDS011;47353;51.614;5.530;2023-06-24T07:07:05;14.27;;;9.65;;
59788;SDS011;47353;51.614;5.530;2023-06-24T07:09:31;11.65;;;9.23;;
59788;SDS011;47353;51.614;5.530;2023-06-24T07:11:56;10.55;;;9.02;;
59788;SDS011;47353;51.614;5.530;2023-06-24T07:14:21;12.32;;;8.35;;
59788;SDS011;47353;51.614;5.530;2023-06-24T07:16:47;13.85;;;9.15;;
59788;SDS011;47353;51.614;5.530;2023-06-24T07:19:12;10.30;;;8.40;;
59788;SDS011;47353;51.614;5.530;2023-06-24T07:21:38;14.48;;;9.27;;
59788;SDS011;47353;51.614;5.530;2023-06-24T07:24:03;12.70;;;8.35;;
59788;SDS011;47353;51.614;5.530;2023-06-24T07:26:29;10.93;;;8.07;;
59788;SDS011;47353;51.614;5.530;2023-06-24T07:28:56;11.95;;;8.13;;
59788;SDS011;47353;51.614;5.530;2023-06-24T07:31:23;12.95;;;7.93;;
59788;SDS011;47353;51.614;5.530;2023-06-24T07:33:48;10.38;;;7.70;;
59788;SDS011;47353;51.614;5.530;2023-06-24T07:36:13;12.15;;;7.63;;
59788;SDS011;47353;51.614;5.530;2023-06-24T07:38:39;9.52;;;7.30;;
59788;SDS011;47353;51.614;5.530;2023-06-24T07:41:04;12.40;;;6.65;;
59788;SDS011;47353;51.614;5.530;2023-06-24T07:43:30;8.88;;;6.60;;
59788;SDS011;47353;51.614;5.530;2023-06-24T07:45:55;9.63;;;7.13;;
59788;SDS011;47353;51.614;5.530;2023-06-24T07:48:20;12.02;;;7.75;;
59788;SDS011;47353;51.614;5.530;2023-06-24T07:50:46;9.70;;;7.38;;
59788;SDS011;47353;51.614;5.530;2023-06-24T07:53:11;8.93;;;6.97;;
59788;SDS011;47353;51.614;5.530;2023-06-24T07:55:37;9.93;;;6.63;;
59788;SDS011;47353;51.614;5.530;2023-06-24T07:58:03;13.00;;;7.22;;
59788;SDS011;47353;51.614;5.530;2023-06-24T08:00:30;9.98;;;6.15;;
59788;SDS011;47353;51.614;5.530;2023-06-24T08:02:56;6.75;;;5.50;;
59788;SDS011;47353;51.614;5.530;2023-06-24T08:05:22;8.32;;;6.43;;
59788;SDS011;47353;51.614;5.530;2023-06-24T08:07:50;8.38;;;6.00;;
59788;SDS011;47353;51.614;5.530;2023-06-24T08:10:15;9.27;;;5.65;;
59788;SDS011;47353;51.614;5.530;2023-06-24T08:12:42;8.07;;;6.30;;
59788;SDS011;47353;51.614;5.530;2023-06-24T08:15:07;7.10;;;6.05;;
59788;SDS011;47353;51.614;5.530;2023-06-24T08:17:33;8.90;;;5.95;;
59788;SDS011;47353;51.614;5.530;2023-06-24T08:19:59;7.10;;;5.88;;
59788;SDS011;47353;51.614;5.530;2023-06-24T08:22:24;8.32;;;6.22;;
59788;SDS011;47353;51.614;5.530;2023-06-24T08:24:50;9.45;;;6.07;;
59788;SDS011;47353;51.614;5.530;2023-06-24T08:27:15;9.82;;;6.03;;
59788;SDS011;47353;51.614;5.530;2023-06-24T08:29:40;11.07;;;5.60;;
59788;SDS011;47353;51.614;5.530;2023-06-24T08:32:06;7.90;;;4.78;;
59788;SDS011;47353;51.614;5.530;2023-06-24T08:34:32;8.68;;;5.07;;
59788;SDS011;47353;51.614;5.530;2023-06-24T08:36:58;11.07;;;4.82;;
59788;SDS011;47353;51.614;5.530;2023-06-24T08:39:23;5.90;;;4.32;;
59788;SDS011;47353;51.614;5.530;2023-06-24T08:41:48;6.40;;;4.50;;
59788;SDS011;47353;51.614;5.530;2023-06-24T08:44:14;4.70;;;3.90;;
59788;SDS011;47353;51.614;5.530;2023-06-24T08:46:40;4.20;;;3.20;;
59788;SDS011;47353;51.614;5.530;2023-06-24T08:49:17;3.63;;;2.38;;
59788;SDS011;47353;51.614;5.530;2023-06-24T08:51:46;3.88;;;3.03;;
59788;SDS011;47353;51.614;5.530;2023-06-24T08:54:19;3.47;;;2.85;;
59788;SDS011;47353;51.614;5.530;2023-06-24T08:56:46;3.70;;;2.75;;
59788;SDS011;47353;51.614;5.530;2023-06-24T08:59:12;3.00;;;2.40;;
59788;SDS011;47353;51.614;5.530;2023-06-24T09:01:37;6.68;;;2.90;;
59788;SDS011;47353;51.614;5.530;2023-06-24T09:04:03;3.55;;;2.45;;
59788;SDS011;47353;51.614;5.530;2023-06-24T09:06:30;3.83;;;2.55;;
59788;SDS011;47353;51.614;5.530;2023-06-24T09:08:56;8.82;;;2.65;;
59788;SDS011;47353;51.614;5.530;2023-06-24T09:11:26;6.95;;;2.83;;
59788;SDS011;47353;51.614;5.530;2023-06-24T09:13:59;4.68;;;2.25;;
59788;SDS011;47353;51.614;5.530;2023-06-24T09:16:25;4.25;;;2.50;;
59788;SDS011;47353;51.614;5.530;2023-06-24T09:18:51;6.50;;;2.70;;
59788;SDS011;47353;51.614;5.530;2023-06-24T09:21:22;3.40;;;2.58;;
59788;SDS011;47353;51.614;5.530;2023-06-24T09:23:56;4.60;;;2.28;;
59788;SDS011;47353;51.614;5.530;2023-06-24T09:26:25;3.97;;;2.30;;
59788;SDS011;47353;51.614;5.530;2023-06-24T09:28:53;3.63;;;2.70;;
59788;SDS011;47353;51.614;5.530;2023-06-24T09:31:19;3.75;;;2.65;;
59788;SDS011;47353;51.614;5.530;2023-06-24T09:33:45;4.00;;;2.17;;
59788;SDS011;47353;51.614;5.530;2023-06-24T09:36:11;2.83;;;1.80;;
59788;SDS011;47353;51.614;5.530;2023-06-24T09:38:41;3.55;;;1.90;;
59788;SDS011;47353;51.614;5.530;2023-06-24T09:41:09;8.23;;;2.15;;
59788;SDS011;47353;51.614;5.530;2023-06-24T09:43:35;9.82;;;2.70;;
59788;SDS011;47353;51.614;5.530;2023-06-24T09:46:02;2.95;;;1.80;;
59788;SDS011;47353;51.614;5.530;2023-06-24T09:48:29;4.78;;;2.20;;
59788;SDS011;47353;51.614;5.530;2023-06-24T09:51:02;4.97;;;1.88;;
59788;SDS011;47353;51.614;5.530;2023-06-24T09:53:32;11.20;;;3.00;;
59788;SDS011;47353;51.614;5.530;2023-06-24T09:55:59;3.60;;;2.28;;
59788;SDS011;47353;51.614;5.530;2023-06-24T09:58:26;4.72;;;2.53;;
59788;SDS011;47353;51.614;5.530;2023-06-24T10:00:56;4.47;;;2.53;;
59788;SDS011;47353;51.614;5.530;2023-06-24T10:03:26;6.43;;;2.28;;
59788;SDS011;47353;51.614;5.530;2023-06-24T10:05:52;3.38;;;2.40;;
59788;SDS011;47353;51.614;5.530;2023-06-24T10:08:18;3.25;;;2.40;;
59788;SDS011;47353;51.614;5.530;2023-06-24T10:10:45;3.75;;;2.67;;
59788;SDS011;47353;51.614;5.530;2023-06-24T10:13:11;5.10;;;2.97;;
59788;SDS011;47353;51.614;5.530;2023-06-24T10:15:36;4.45;;;2.67;;
59788;SDS011;47353;51.614;5.530;2023-06-24T10:18:02;3.90;;;2.60;;
59788;SDS011;47353;51.614;5.530;2023-06-24T10:20:28;3.15;;;2.40;;
59788;SDS011;47353;51.614;5.530;2023-06-24T10:22:54;6.18;;;3.10;;
59788;SDS011;47353;51.614;5.530;2023-06-24T10:25:20;5.40;;;2.83;;
59788;SDS011;47353;51.614;5.530;2023-06-24T10:27:46;4.05;;;2.60;;
59788;SDS011;47353;51.614;5.530;2023-06-24T10:30:18;3.78;;;2.80;;
59788;SDS011;47353;51.614;5.530;2023-06-24T10:32:51;5.18;;;2.60;;
59788;SDS011;47353;51.614;5.530;2023-06-24T10:35:23;3.88;;;2.38;;
59788;SDS011;47353;51.614;5.530;2023-06-24T10:37:54;4.10;;;2.08;;
59788;SDS011;47353;51.614;5.530;2023-06-24T10:40:42;3.55;;;2.50;;
59788;SDS011;47353;51.614;5.530;2023-06-24T10:45:50;7.38;;;3.10;;
59788;SDS011;47353;51.614;5.530;2023-06-24T10:48:17;5.68;;;3.40;;
59788;SDS011;47353;51.614;5.530;2023-06-24T10:50:44;5.15;;;2.88;;
59788;SDS011;47353;51.614;5.530;2023-06-24T10:53:10;3.80;;;2.80;;
59788;SDS011;47353;51.614;5.530;2023-06-24T10:55:38;7.30;;;3.10;;
59788;SDS011;47353;51.614;5.530;2023-06-24T10:58:07;4.15;;;2.95;;
59788;SDS011;47353;51.614;5.530;2023-06-24T11:00:34;3.60;;;2.60;;
59788;SDS011;47353;51.614;5.530;2023-06-24T11:03:09;4.78;;;2.80;;
59788;SDS011;47353;51.614;5.530;2023-06-24T11:05:42;5.90;;;2.72;;
59788;SDS011;47353;51.614;5.530;2023-06-24T11:08:13;3.38;;;2.80;;
59788;SDS011;47353;51.614;5.530;2023-06-24T11:10:43;4.10;;;2.50;;
59788;SDS011;47353;51.614;5.530;2023-06-24T11:13:12;4.45;;;2.95;;
59788;SDS011;47353;51.614;5.530;2023-06-24T11:15:41;6.10;;;3.00;;
59788;SDS011;47353;51.614;5.530;2023-06-24T11:18:10;3.75;;;3.22;;
59788;SDS011;47353;51.614;5.530;2023-06-24T11:20:36;4.35;;;2.80;;
59788;SDS011;47353;51.614;5.530;2023-06-24T11:23:06;6.47;;;2.95;;
59788;SDS011;47353;51.614;5.530;2023-06-24T11:25:37;4.95;;;2.92;;
59788;SDS011;47353;51.614;5.530;2023-06-24T11:28:04;3.20;;;2.90;;
59788;SDS011;47353;51.614;5.530;2023-06-24T11:30:33;4.75;;;3.15;;
59788;SDS011;47353;51.614;5.530;2023-06-24T11:32:59;6.43;;;2.92;;
59788;SDS011;47353;51.614;5.530;2023-06-24T11:35:24;3.80;;;3.10;;
59788;SDS011;47353;51.614;5.530;2023-06-24T11:37:50;4.93;;;2.80;;
59788;SDS011;47353;51.614;5.530;2023-06-24T11:40:16;5.57;;;3.13;;
59788;SDS011;47353;51.614;5.530;2023-06-24T11:42:44;4.85;;;3.17;;
59788;SDS011;47353;51.614;5.530;2023-06-24T11:45:10;3.83;;;2.90;;
59788;SDS011;47353;51.614;5.530;2023-06-24T11:47:37;3.65;;;3.05;;
59788;SDS011;47353;51.614;5.530;2023-06-24T11:50:04;6.20;;;3.90;;
59788;SDS011;47353;51.614;5.530;2023-06-24T11:55:12;4.50;;;3.08;;
59788;SDS011;47353;51.614;5.530;2023-06-24T12:00:19;6.10;;;3.30;;
59788;SDS011;47353;51.614;5.530;2023-06-24T12:02:49;4.95;;;3.30;;
59788;SDS011;47353;51.614;5.530;2023-06-24T12:05:20;4.85;;;3.33;;
59788;SDS011;47353;51.614;5.530;2023-06-24T12:07:51;6.15;;;3.80;;
59788;SDS011;47353;51.614;5.530;2023-06-24T12:10:18;4.65;;;3.10;;
59788;SDS011;47353;51.614;5.530;2023-06-24T12:12:44;4.15;;;3.10;;
59788;SDS011;47353;51.614;5.530;2023-06-24T12:15:09;5.10;;;3.38;;
59788;SDS011;47353;51.614;5.530;2023-06-24T12:17:35;4.60;;;3.55;;
59788;SDS011;47353;51.614;5.530;2023-06-24T12:20:00;5.57;;;3.83;;
59788;SDS011;47353;51.614;5.530;2023-06-24T12:22:25;7.15;;;3.58;;
59788;SDS011;47353;51.614;5.530;2023-06-24T12:24:52;3.83;;;3.25;;
59788;SDS011;47353;51.614;5.530;2023-06-24T12:27:17;3.97;;;3.53;;
59788;SDS011;47353;51.614;5.530;2023-06-24T12:29:42;4.32;;;3.40;;
59788;SDS011;47353;51.614;5.530;2023-06-24T12:32:08;4.30;;;3.90;;
59788;SDS011;47353;51.614;5.530;2023-06-24T12:34:33;3.67;;;3.28;;
59788;SDS011;47353;51.614;5.530;2023-06-24T12:36:59;5.75;;;3.70;;
59788;SDS011;47353;51.614;5.530;2023-06-24T12:39:24;4.78;;;3.40;;
59788;SDS011;47353;51.614;5.530;2023-06-24T12:41:49;3.75;;;3.20;;
59788;SDS011;47353;51.614;5.530;2023-06-24T12:44:15;4.22;;;3.33;;
59788;SDS011;47353;51.614;5.530;2023-06-24T12:46:40;4.35;;;3.53;;
59788;SDS011;47353;51.614;5.530;2023-06-24T12:49:05;5.28;;;4.25;;
59788;SDS011;47353;51.614;5.530;2023-06-24T12:51:31;4.25;;;3.83;;
59788;SDS011;47353;51.614;5.530;2023-06-24T12:53:56;7.53;;;3.90;;
59788;SDS011;47353;51.614;5.530;2023-06-24T12:56:22;5.88;;;3.10;;
59788;SDS011;47353;51.614;5.530;2023-06-24T12:58:47;5.57;;;3.70;;
59788;SDS011;47353;51.614;5.530;2023-06-24T13:01:12;5.18;;;4.00;;
59788;SDS011;47353;51.614;5.530;2023-06-24T13:03:38;4.10;;;3.35;;
59788;SDS011;47353;51.614;5.530;2023-06-24T13:06:03;4.82;;;3.47;;
59788;SDS011;47353;51.614;5.530;2023-06-24T13:08:29;4.25;;;3.05;;
59788;SDS011;47353;51.614;5.530;2023-06-24T13:10:54;4.35;;;3.10;;
59788;SDS011;47353;51.614;5.530;2023-06-24T13:13:20;3.63;;;3.20;;
59788;SDS011;47353;51.614;5.530;2023-06-24T13:15:45;6.32;;;3.35;;
59788;SDS011;47353;51.614;5.530;2023-06-24T13:18:10;5.47;;;3.22;;
59788;SDS011;47353;51.614;5.530;2023-06-24T13:20:36;4.75;;;3.20;;
59788;SDS011;47353;51.614;5.530;2023-06-24T13:23:01;5.40;;;3.10;;
59788;SDS011;47353;51.614;5.530;2023-06-24T13:25:27;3.38;;;3.00;;
59788;SDS011;47353;51.614;5.530;2023-06-24T13:27:52;4.45;;;3.60;;
59788;SDS011;47353;51.614;5.530;2023-06-24T13:30:17;5.15;;;3.33;;
59788;SDS011;47353;51.614;5.530;2023-06-24T13:32:43;4.55;;;3.50;;
59788;SDS011;47353;51.614;5.530;2023-06-24T13:35:09;4.72;;;3.75;;
59788;SDS011;47353;51.614;5.530;2023-06-24T13:37:34;4.22;;;3.70;;
59788;SDS011;47353;51.614;5.530;2023-06-24T13:40:00;5.43;;;3.47;;
59788;SDS011;47353;51.614;5.530;2023-06-24T13:42:25;4.38;;;3.05;;
59788;SDS011;47353;51.614;5.530;2023-06-24T13:44:51;4.70;;;3.20;;
59788;SDS011;47353;51.614;5.530;2023-06-24T13:47:16;3.67;;;3.25;;
59788;SDS011;47353;51.614;5.530;2023-06-24T13:49:42;4.20;;;3.35;;
59788;SDS011;47353;51.614;5.530;2023-06-24T13:52:07;3.55;;;2.88;;
59788;SDS011;47353;51.614;5.530;2023-06-24T13:54:33;4.05;;;3.28;;
59788;SDS011;47353;51.614;5.530;2023-06-24T13:57:00;4.45;;;3.30;;
59788;SDS011;47353;51.614;5.530;2023-06-24T13:59:25;3.25;;;2.75;;
59788;SDS011;47353;51.614;5.530;2023-06-24T14:01:51;3.60;;;3.03;;
59788;SDS011;47353;51.614;5.530;2023-06-24T14:04:16;3.90;;;3.25;;
59788;SDS011;47353;51.614;5.530;2023-06-24T14:06:42;3.58;;;3.28;;
59788;SDS011;47353;51.614;5.530;2023-06-24T14:09:08;3.42;;;3.00;;
59788;SDS011;47353;51.614;5.530;2023-06-24T14:11:34;4.53;;;3.35;;
59788;SDS011;47353;51.614;5.530;2023-06-24T14:13:59;3.90;;;3.00;;
59788;SDS011;47353;51.614;5.530;2023-06-24T14:16:24;3.53;;;3.13;;
59788;SDS011;47353;51.614;5.530;2023-06-24T14:18:50;6.22;;;3.13;;
59788;SDS011;47353;51.614;5.530;2023-06-24T14:21:15;6.38;;;3.08;;
59788;SDS011;47353;51.614;5.530;2023-06-24T14:23:41;3.28;;;2.97;;
59788;SDS011;47353;51.614;5.530;2023-06-24T14:26:07;3.25;;;2.95;;
59788;SDS011;47353;51.614;5.530;2023-06-24T14:28:32;3.70;;;3.40;;
59788;SDS011;47353;51.614;5.530;2023-06-24T14:30:57;4.65;;;3.00;;
59788;SDS011;47353;51.614;5.530;2023-06-24T14:33:23;3.10;;;2.80;;
59788;SDS011;47353;51.614;5.530;2023-06-24T14:35:48;2.95;;;2.55;;
59788;SDS011;47353;51.614;5.530;2023-06-24T14:38:14;3.10;;;2.80;;
59788;SDS011;47353;51.614;5.530;2023-06-24T14:40:39;3.85;;;3.08;;
59788;SDS011;47353;51.614;5.530;2023-06-24T14:43:05;3.65;;;3.10;;
59788;SDS011;47353;51.614;5.530;2023-06-24T14:45:30;3.92;;;3.20;;
59788;SDS011;47353;51.614;5.530;2023-06-24T14:47:55;3.80;;;3.00;;
59788;SDS011;47353;51.614;5.530;2023-06-24T14:50:22;3.15;;;2.85;;
59788;SDS011;47353;51.614;5.530;2023-06-24T14:52:48;4.50;;;3.22;;
59788;SDS011;47353;51.614;5.530;2023-06-24T14:55:13;4.63;;;2.90;;